Time;durP1;ratioP1;P1;durP2;ratioP2;P2;SDS_P1;SDS_P2;PMS_P1;PMS_P2;Temp;Humidity;BMP_temperature;BMP_pressure;BME280_temperature;BME280_humidity;BME280_pressure;Samples;Min_cycle;Max_cycle;Signal;HPM_P1;HPM_P2
2022/06/24 00:00:10;;;;;;;5.47;1.70;;;;;;;;;;4975080;28;20283;-73
2022/06/24 00:02:41;;;;;;;4.80;1.90;;;;;;;;;;4964563;28;20199;-73
2022/06/24 00:05:10;;;;;;;6.63;2.03;;;;;;;;;;4973922;28;20258;-73
2022/06/24 00:07:46;;;;;;;3.47;1.60;;;;;;;;;;4980074;28;20661;-73
2022/06/24 00:10:13;;;;;;;8.30;1.97;;;;;;;;;;4970356;28;20285;-73
2022/06/24 00:12:39;;;;;;;8.53;1.90;;;;;;;;;;4974069;28;20180;-73
2022/06/24 00:15:05;;;;;;;6.73;1.90;;;;;;;;;;4973353;28;20621;-73
2022/06/24 00:17:32;;;;;;;6.43;1.77;;;;;;;;;;4973583;28;20195;-73
2022/06/24 00:20:00;;;;;;;4.70;1.87;;;;;;;;;;4971775;28;20212;-73
2022/06/24 00:22:27;;;;;;;3.67;1.70;;;;;;;;;;4973338;28;20271;-73
2022/06/24 00:25:08;;;;;;;5.77;1.67;;;;;;;;;;4975876;28;20271;-73
2022/06/24 00:27:35;;;;;;;4.53;1.80;;;;;;;;;;4971531;28;20209;-74
2022/06/24 00:30:07;;;;;;;4.00;1.60;;;;;;;;;;4973327;28;20255;-73
2022/06/24 00:32:33;;;;;;;4.27;1.73;;;;;;;;;;4972926;28;20273;-73
2022/06/24 00:35:06;;;;;;;5.90;1.70;;;;;;;;;;4974824;28;20187;-73
2022/06/24 00:37:33;;;;;;;5.80;1.80;;;;;;;;;;4975773;28;20184;-73
2022/06/24 00:40:12;;;;;;;4.80;1.87;;;;;;;;;;4973872;28;20237;-73
2022/06/24 00:42:39;;;;;;;3.87;1.60;;;;;;;;;;4977338;28;20557;-73
2022/06/24 00:45:18;;;;;;;5.70;2.10;;;;;;;;;;4957051;28;20196;-73
2022/06/24 00:47:45;;;;;;;8.30;2.17;;;;;;;;;;4974377;28;20243;-73
2022/06/24 00:50:23;;;;;;;4.03;1.93;;;;;;;;;;4971535;28;20216;-73
2022/06/24 00:52:51;;;;;;;4.43;1.70;;;;;;;;;;4974785;28;20243;-72
2022/06/24 00:55:31;;;;;;;4.40;1.97;;;;;;;;;;4984330;28;20275;-73
2022/06/24 00:57:58;;;;;;;4.90;1.77;;;;;;;;;;4976913;28;20184;-73
2022/06/24 01:00:25;;;;;;;5.30;1.87;;;;;;;;;;4975211;28;20299;-73
2022/06/24 01:02:56;;;;;;;5.20;1.80;;;;;;;;;;4975514;28;20267;-73
2022/06/24 01:05:23;;;;;;;5.80;2.17;;;;;;;;;;4979080;28;20187;-73
2022/06/24 01:07:49;;;;;;;4.57;2.10;;;;;;;;;;4977183;28;20190;-73
2022/06/24 01:10:15;;;;;;;4.93;2.10;;;;;;;;;;4974940;28;20223;-72
2022/06/24 01:12:42;;;;;;;6.20;1.97;;;;;;;;;;4975486;28;20836;-73
2022/06/24 01:15:08;;;;;;;7.57;2.27;;;;;;;;;;4983158;28;20267;-73
2022/06/24 01:17:35;;;;;;;3.70;1.80;;;;;;;;;;4980768;28;20219;-73
2022/06/24 01:20:01;;;;;;;5.00;2.10;;;;;;;;;;4978883;28;20655;-73
2022/06/24 01:22:27;;;;;;;7.37;2.20;;;;;;;;;;4976824;28;20184;-73
2022/06/24 01:24:54;;;;;;;4.63;2.03;;;;;;;;;;4973123;28;20291;-73
2022/06/24 01:27:20;;;;;;;6.03;2.40;;;;;;;;;;4974480;28;20660;-73
2022/06/24 01:29:47;;;;;;;8.10;2.27;;;;;;;;;;4977318;28;20596;-73
2022/06/24 01:32:13;;;;;;;7.67;2.17;;;;;;;;;;4977634;28;20189;-73
2022/06/24 01:34:39;;;;;;;4.07;1.80;;;;;;;;;;4979192;28;20938;-73
2022/06/24 01:37:06;;;;;;;4.90;2.20;;;;;;;;;;4978809;28;20177;-73
2022/06/24 01:39:32;;;;;;;7.20;2.20;;;;;;;;;;4979214;28;20283;-73
2022/06/24 01:41:58;;;;;;;5.27;2.20;;;;;;;;;;4981985;28;20195;-73
2022/06/24 01:44:25;;;;;;;5.40;2.40;;;;;;;;;;4977442;28;20547;-73
2022/06/24 01:46:52;;;;;;;4.20;2.10;;;;;;;;;;4974219;28;20208;-73
2022/06/24 01:49:18;;;;;;;3.40;2.10;;;;;;;;;;4972430;28;20220;-73
2022/06/24 01:51:46;;;;;;;3.40;2.00;;;;;;;;;;4976819;28;20256;-73
2022/06/24 01:54:12;;;;;;;4.90;1.80;;;;;;;;;;4977183;28;20177;-73
2022/06/24 01:56:39;;;;;;;2.53;1.90;;;;;;;;;;4974283;28;20192;-73
2022/06/24 01:59:05;;;;;;;3.73;2.30;;;;;;;;;;4957622;28;20924;-74
2022/06/24 02:01:31;;;;;;;4.83;1.90;;;;;;;;;;4972631;28;20560;-73
2022/06/24 02:03:57;;;;;;;4.63;2.13;;;;;;;;;;4964661;28;20176;-73
2022/06/24 02:06:24;;;;;;;3.70;1.80;;;;;;;;;;4955074;28;20181;-73
2022/06/24 02:08:51;;;;;;;4.43;1.90;;;;;;;;;;4953449;28;20740;-73
2022/06/24 02:14:05;;;;;;;4.23;1.90;;;;;;;;;;4977071;28;20188;-73
2022/06/24 02:16:31;;;;;;;4.77;2.20;;;;;;;;;;4979100;28;20238;-73
2022/06/24 02:18:57;;;;;;;4.50;1.90;;;;;;;;;;4973689;28;20188;-73
2022/06/24 02:21:24;;;;;;;4.97;2.07;;;;;;;;;;4980403;28;20180;-73
2022/06/24 02:23:51;;;;;;;3.83;1.90;;;;;;;;;;4979155;28;20682;-73
2022/06/24 02:26:17;;;;;;;3.47;1.70;;;;;;;;;;4963659;28;20254;-73
2022/06/24 02:28:44;;;;;;;2.93;1.70;;;;;;;;;;4968722;28;20192;-73
2022/06/24 02:31:10;;;;;;;3.57;1.73;;;;;;;;;;4973254;28;20219;-73
2022/06/24 02:33:36;;;;;;;3.27;1.67;;;;;;;;;;4971169;28;20649;-73
2022/06/24 02:36:03;;;;;;;4.43;1.90;;;;;;;;;;4972393;28;20189;-73
2022/06/24 02:38:29;;;;;;;4.10;1.90;;;;;;;;;;4975967;28;20224;-73
2022/06/24 02:40:55;;;;;;;2.53;1.70;;;;;;;;;;4971204;28;20219;-73
2022/06/24 02:43:21;;;;;;;5.03;1.90;;;;;;;;;;4975444;28;20188;-73
2022/06/24 02:46:01;;;;;;;3.37;1.80;;;;;;;;;;4973298;28;20315;-73
2022/06/24 02:48:28;;;;;;;3.23;2.00;;;;;;;;;;4968194;28;20197;-73
2022/06/24 02:50:56;;;;;;;3.00;1.83;;;;;;;;;;4971339;28;20242;-73
2022/06/24 02:53:23;;;;;;;4.67;2.07;;;;;;;;;;4971870;28;20179;-73
2022/06/24 02:55:50;;;;;;;2.97;1.57;;;;;;;;;;4976004;28;20181;-73
2022/06/24 02:58:16;;;;;;;3.23;1.67;;;;;;;;;;4968997;28;20181;-73
2022/06/24 03:00:43;;;;;;;5.30;1.80;;;;;;;;;;4971928;28;20196;-73
2022/06/24 03:03:10;;;;;;;4.60;2.00;;;;;;;;;;4974932;28;20556;-73
2022/06/24 03:05:36;;;;;;;5.93;2.20;;;;;;;;;;4971609;28;20183;-73
2022/06/24 03:08:02;;;;;;;2.73;1.67;;;;;;;;;;4969048;28;20271;-74
2022/06/24 03:10:29;;;;;;;3.87;1.93;;;;;;;;;;4970966;28;20614;-74
2022/06/24 03:12:55;;;;;;;4.27;2.10;;;;;;;;;;4970314;28;20187;-73
2022/06/24 03:15:21;;;;;;;4.30;1.90;;;;;;;;;;4971068;28;20263;-73
2022/06/24 03:17:47;;;;;;;2.30;1.97;;;;;;;;;;4968369;28;20180;-74
2022/06/24 03:20:14;;;;;;;3.73;1.93;;;;;;;;;;4970546;28;20303;-73
2022/06/24 03:22:40;;;;;;;3.07;1.73;;;;;;;;;;4968436;28;20191;-73
2022/06/24 03:25:07;;;;;;;4.63;1.90;;;;;;;;;;4970848;28;20236;-73
2022/06/24 03:27:33;;;;;;;4.17;1.80;;;;;;;;;;4970127;28;20181;-74
2022/06/24 03:30:00;;;;;;;5.23;2.07;;;;;;;;;;4968877;28;20218;-73
2022/06/24 03:32:26;;;;;;;4.43;1.77;;;;;;;;;;4974091;28;20215;-73
2022/06/24 03:34:52;;;;;;;4.10;1.93;;;;;;;;;;4970427;28;20188;-73
2022/06/24 03:37:18;;;;;;;5.43;1.90;;;;;;;;;;4969009;28;20200;-74
2022/06/24 03:39:44;;;;;;;3.60;1.50;;;;;;;;;;4970430;28;20208;-74
2022/06/24 03:42:11;;;;;;;3.87;1.60;;;;;;;;;;4968401;28;20530;-73
2022/06/24 03:44:37;;;;;;;5.60;1.70;;;;;;;;;;4958857;28;20250;-73
2022/06/24 03:47:03;;;;;;;4.00;1.97;;;;;;;;;;4973876;28;20204;-73
2022/06/24 03:49:29;;;;;;;4.13;1.70;;;;;;;;;;4970464;28;20224;-73
2022/06/24 03:51:56;;;;;;;4.30;2.07;;;;;;;;;;4978024;28;20649;-73
2022/06/24 03:54:22;;;;;;;2.87;1.60;;;;;;;;;;4972799;28;20180;-73
2022/06/24 03:56:48;;;;;;;2.33;1.57;;;;;;;;;;4979041;28;20663;-73
2022/06/24 03:59:15;;;;;;;3.27;1.40;;;;;;;;;;4967379;28;20208;-73
2022/06/24 04:01:41;;;;;;;4.97;1.70;;;;;;;;;;4976830;28;20187;-73
2022/06/24 04:04:07;;;;;;;4.73;1.80;;;;;;;;;;4971576;28;20184;-73
2022/06/24 04:06:33;;;;;;;2.47;1.43;;;;;;;;;;4971190;28;20544;-73
2022/06/24 04:08:59;;;;;;;2.93;1.70;;;;;;;;;;4959176;28;20324;-73
2022/06/24 04:11:25;;;;;;;4.70;1.70;;;;;;;;;;4973948;28;20181;-73
2022/06/24 04:13:52;;;;;;;2.53;1.50;;;;;;;;;;4972109;28;20275;-73
2022/06/24 04:16:18;;;;;;;4.97;1.60;;;;;;;;;;4974398;28;20189;-73
2022/06/24 04:18:44;;;;;;;4.27;1.60;;;;;;;;;;4972351;28;20191;-73
2022/06/24 04:21:14;;;;;;;4.20;1.40;;;;;;;;;;4955833;28;20217;-73
2022/06/24 04:23:41;;;;;;;3.33;1.60;;;;;;;;;;4974263;28;20189;-73
2022/06/24 04:26:07;;;;;;;2.73;1.60;;;;;;;;;;4970415;28;20216;-73
2022/06/24 04:28:33;;;;;;;2.37;1.40;;;;;;;;;;4971255;28;20204;-73
2022/06/24 04:31:00;;;;;;;2.37;1.67;;;;;;;;;;4971081;28;20638;-73
2022/06/24 04:33:26;;;;;;;2.83;1.50;;;;;;;;;;4974351;28;20215;-73
2022/06/24 04:35:52;;;;;;;4.97;1.70;;;;;;;;;;4971926;28;20212;-73
2022/06/24 04:38:18;;;;;;;3.83;1.80;;;;;;;;;;4968440;28;20184;-73
2022/06/24 04:40:44;;;;;;;2.57;1.60;;;;;;;;;;4970107;28;22110;-72
2022/06/24 04:43:10;;;;;;;3.10;1.50;;;;;;;;;;4978362;28;20232;-74
2022/06/24 04:45:37;;;;;;;4.57;1.90;;;;;;;;;;4960484;28;20711;-73
2022/06/24 04:48:03;;;;;;;3.67;1.80;;;;;;;;;;4973964;28;20288;-74
2022/06/24 04:50:30;;;;;;;4.07;1.90;;;;;;;;;;4972197;28;20299;-75
2022/06/24 04:52:56;;;;;;;4.17;1.67;;;;;;;;;;4974463;28;20543;-74
2022/06/24 04:55:22;;;;;;;3.87;1.83;;;;;;;;;;4975722;28;20177;-72
2022/06/24 04:57:48;;;;;;;5.87;1.67;;;;;;;;;;4974810;28;20228;-73
2022/06/24 05:00:15;;;;;;;3.13;1.57;;;;;;;;;;4977879;28;20672;-72
2022/06/24 05:02:42;;;;;;;4.23;1.60;;;;;;;;;;4969527;28;20188;-72
2022/06/24 05:05:08;;;;;;;2.73;1.60;;;;;;;;;;4975291;28;20476;-72
2022/06/24 05:07:35;;;;;;;2.97;1.80;;;;;;;;;;4979852;28;20180;-72
2022/06/24 05:10:01;;;;;;;6.53;1.67;;;;;;;;;;4978026;28;20215;-72
2022/06/24 05:12:27;;;;;;;2.60;1.53;;;;;;;;;;4974037;28;20176;-72
2022/06/24 05:14:53;;;;;;;4.83;1.60;;;;;;;;;;4972863;28;20657;-72
2022/06/24 05:17:20;;;;;;;4.10;1.50;;;;;;;;;;4970748;28;20180;-72
2022/06/24 05:19:46;;;;;;;3.80;1.70;;;;;;;;;;4971018;28;20234;-72
2022/06/24 05:22:12;;;;;;;4.60;1.73;;;;;;;;;;4970247;28;20184;-72
2022/06/24 05:24:38;;;;;;;4.80;1.60;;;;;;;;;;4972702;28;20192;-72
2022/06/24 05:27:04;;;;;;;2.70;1.60;;;;;;;;;;4954226;28;20196;-72
2022/06/24 05:29:31;;;;;;;2.87;1.50;;;;;;;;;;4967498;28;21008;-72
2022/06/24 05:31:57;;;;;;;5.97;1.90;;;;;;;;;;4971903;28;20220;-72
2022/06/24 05:34:23;;;;;;;5.13;1.83;;;;;;;;;;4973428;28;20196;-72
2022/06/24 05:36:49;;;;;;;7.73;2.40;;;;;;;;;;4969448;28;20177;-72
2022/06/24 05:39:15;;;;;;;6.43;2.50;;;;;;;;;;4969927;28;20312;-72
2022/06/24 05:41:43;;;;;;;7.57;2.60;;;;;;;;;;4974634;28;20197;-72
2022/06/24 05:44:09;;;;;;;7.07;2.67;;;;;;;;;;4970115;28;20359;-72
2022/06/24 05:46:36;;;;;;;5.27;2.40;;;;;;;;;;4970957;28;20192;-72
2022/06/24 05:49:02;;;;;;;5.63;2.60;;;;;;;;;;4967652;28;20189;-72
2022/06/24 05:51:28;;;;;;;6.50;3.00;;;;;;;;;;4971049;28;20184;-71
2022/06/24 05:56:40;;;;;;;9.10;3.10;;;;;;;;;;4972129;28;20184;-71
2022/06/24 05:59:06;;;;;;;6.83;2.90;;;;;;;;;;4970752;28;20193;-71
2022/06/24 06:01:33;;;;;;;7.83;2.83;;;;;;;;;;4970297;28;20192;-71
2022/06/24 06:03:59;;;;;;;6.47;3.20;;;;;;;;;;4967083;28;20188;-72
2022/06/24 06:06:25;;;;;;;6.23;2.63;;;;;;;;;;4971598;28;20191;-72
2022/06/24 06:08:51;;;;;;;6.10;3.00;;;;;;;;;;4969966;28;20284;-72
2022/06/24 06:11:18;;;;;;;7.70;3.47;;;;;;;;;;4976701;28;20184;-72
2022/06/24 06:13:45;;;;;;;6.13;3.60;;;;;;;;;;4968985;28;20196;-72
2022/06/24 06:16:12;;;;;;;6.77;3.50;;;;;;;;;;4971637;28;20267;-72
2022/06/24 06:18:38;;;;;;;5.43;3.20;;;;;;;;;;4969405;28;20208;-72
2022/06/24 06:21:06;;;;;;;9.63;3.97;;;;;;;;;;4971386;28;20193;-72
2022/06/24 06:23:33;;;;;;;7.17;4.30;;;;;;;;;;4971260;28;20652;-72
2022/06/24 06:26:00;;;;;;;6.40;4.47;;;;;;;;;;4954162;28;20193;-72
2022/06/24 06:28:26;;;;;;;6.67;4.20;;;;;;;;;;4971823;28;20667;-72
2022/06/24 06:30:52;;;;;;;5.70;4.20;;;;;;;;;;4971240;28;20220;-72
2022/06/24 06:33:18;;;;;;;8.10;4.10;;;;;;;;;;4969740;28;20189;-72
2022/06/24 06:35:45;;;;;;;9.53;4.60;;;;;;;;;;4973816;28;20189;-72
2022/06/24 06:38:11;;;;;;;6.90;4.13;;;;;;;;;;4969990;28;20266;-72
2022/06/24 06:40:38;;;;;;;8.70;4.10;;;;;;;;;;4969437;28;20807;-72
2022/06/24 06:43:09;;;;;;;5.97;4.43;;;;;;;;;;4970394;28;20204;-72
2022/06/24 06:45:36;;;;;;;6.83;4.63;;;;;;;;;;4968404;28;20648;-71
2022/06/24 06:48:03;;;;;;;7.23;4.00;;;;;;;;;;4969631;28;20267;-72
2022/06/24 06:50:29;;;;;;;8.03;4.10;;;;;;;;;;4971707;28;20238;-72
2022/06/24 06:52:55;;;;;;;7.60;3.70;;;;;;;;;;4974328;28;20192;-75
2022/06/24 06:55:22;;;;;;;8.63;3.80;;;;;;;;;;4947905;28;20188;-71
2022/06/24 06:57:48;;;;;;;5.00;3.37;;;;;;;;;;4968065;28;20176;-81
2022/06/24 07:00:15;;;;;;;6.03;3.63;;;;;;;;;;4970807;28;20197;-71
2022/06/24 07:02:41;;;;;;;4.10;3.23;;;;;;;;;;4968162;28;20819;-71
2022/06/24 07:05:08;;;;;;;9.57;3.73;;;;;;;;;;4968584;28;20193;-71
2022/06/24 07:07:34;;;;;;;10.30;3.73;;;;;;;;;;4976081;28;20653;-71
2022/06/24 07:10:01;;;;;;;7.47;3.60;;;;;;;;;;4974959;28;20285;-71
2022/06/24 07:12:28;;;;;;;8.73;3.37;;;;;;;;;;4970033;28;20226;-71
2022/06/24 07:14:54;;;;;;;4.73;3.20;;;;;;;;;;4968891;28;20183;-71
2022/06/24 07:17:20;;;;;;;6.37;3.07;;;;;;;;;;4969667;28;20219;-71
2022/06/24 07:19:47;;;;;;;4.53;3.13;;;;;;;;;;4969899;28;20200;-71
2022/06/24 07:22:13;;;;;;;5.43;2.97;;;;;;;;;;4970432;28;20195;-71
2022/06/24 07:24:39;;;;;;;6.93;3.67;;;;;;;;;;4971958;28;20234;-71
2022/06/24 07:27:06;;;;;;;9.43;3.23;;;;;;;;;;4969754;28;20644;-71
2022/06/24 07:29:33;;;;;;;7.10;3.20;;;;;;;;;;4970434;28;20220;-70
2022/06/24 07:32:00;;;;;;;4.87;3.40;;;;;;;;;;4969487;28;20573;-71
2022/06/24 07:34:26;;;;;;;6.57;3.20;;;;;;;;;;4972300;28;20190;-71
2022/06/24 07:36:53;;;;;;;8.23;3.57;;;;;;;;;;4965053;28;20186;-71
2022/06/24 07:39:19;;;;;;;5.70;2.90;;;;;;;;;;4967334;28;20200;-71
2022/06/24 07:41:45;;;;;;;10.70;3.30;;;;;;;;;;4968718;28;20184;-71
2022/06/24 07:44:11;;;;;;;6.63;2.80;;;;;;;;;;4971625;28;20188;-71
2022/06/24 07:46:37;;;;;;;5.03;2.67;;;;;;;;;;4970847;28;20216;-71
2022/06/24 07:49:04;;;;;;;4.07;2.80;;;;;;;;;;4967900;28;20183;-71
2022/06/24 07:51:30;;;;;;;7.77;2.90;;;;;;;;;;4973549;28;20191;-71
2022/06/24 07:53:56;;;;;;;4.37;2.50;;;;;;;;;;4968846;28;20663;-71
2022/06/24 07:59:08;;;;;;;5.10;3.00;;;;;;;;;;4969758;28;20275;-71
2022/06/24 08:01:35;;;;;;;4.63;2.80;;;;;;;;;;4970602;28;20275;-71
2022/06/24 08:04:07;;;;;;;6.53;2.40;;;;;;;;;;4969349;28;20187;-71
2022/06/24 08:06:35;;;;;;;5.63;2.60;;;;;;;;;;4969129;28;20284;-71
2022/06/24 08:09:01;;;;;;;4.80;2.77;;;;;;;;;;4967951;28;20265;-71
2022/06/24 08:11:28;;;;;;;4.40;2.60;;;;;;;;;;4970551;28;20177;-71
2022/06/24 08:13:55;;;;;;;3.83;2.47;;;;;;;;;;4966461;28;20188;-71
2022/06/24 08:16:22;;;;;;;6.03;2.60;;;;;;;;;;4974019;28;20180;-71
2022/06/24 08:18:49;;;;;;;4.60;2.50;;;;;;;;;;4970988;28;20251;-71
2022/06/24 08:21:15;;;;;;;6.13;2.80;;;;;;;;;;4973221;28;20203;-73
2022/06/24 08:23:42;;;;;;;4.30;2.50;;;;;;;;;;4972018;28;20189;-71
2022/06/24 08:26:08;;;;;;;3.27;2.40;;;;;;;;;;4975816;28;20268;-72
2022/06/24 08:28:34;;;;;;;5.10;2.67;;;;;;;;;;4974195;28;20192;-72
2022/06/24 08:31:01;;;;;;;4.27;2.30;;;;;;;;;;4973485;28;20212;-71
2022/06/24 08:33:27;;;;;;;3.50;2.60;;;;;;;;;;4974303;28;20187;-71
2022/06/24 08:35:54;;;;;;;4.70;2.70;;;;;;;;;;4974238;28;20263;-71
2022/06/24 08:38:20;;;;;;;5.77;2.73;;;;;;;;;;4969189;28;20177;-72
2022/06/24 08:40:47;;;;;;;4.37;2.30;;;;;;;;;;4968515;28;20204;-71
2022/06/24 08:43:14;;;;;;;4.03;2.50;;;;;;;;;;4972815;28;20228;-71
2022/06/24 08:45:40;;;;;;;2.63;2.10;;;;;;;;;;4970288;28;20211;-71
2022/06/24 08:48:10;;;;;;;2.97;2.10;;;;;;;;;;4970628;28;20180;-71
2022/06/24 08:50:36;;;;;;;3.10;2.30;;;;;;;;;;4968425;28;20208;-71
2022/06/24 08:53:05;;;;;;;4.47;2.30;;;;;;;;;;4968264;28;20211;-71
2022/06/24 08:55:34;;;;;;;3.80;1.90;;;;;;;;;;4971343;28;20195;-71
2022/06/24 08:58:05;;;;;;;2.40;2.17;;;;;;;;;;4973145;28;20268;-72
2022/06/24 09:00:31;;;;;;;3.17;2.00;;;;;;;;;;4974755;28;20614;-72
2022/06/24 09:02:57;;;;;;;3.47;2.17;;;;;;;;;;4972051;28;20192;-72
2022/06/24 09:05:26;;;;;;;3.40;2.27;;;;;;;;;;4968654;28;20185;-72
2022/06/24 09:07:57;;;;;;;5.20;2.20;;;;;;;;;;4971473;28;20292;-73
2022/06/24 09:10:23;;;;;;;2.77;2.00;;;;;;;;;;4968797;28;20232;-73
2022/06/24 09:12:49;;;;;;;4.30;2.30;;;;;;;;;;4965336;28;20200;-73
2022/06/24 09:15:16;;;;;;;2.67;1.90;;;;;;;;;;4969908;28;20185;-74
2022/06/24 09:17:43;;;;;;;4.40;2.10;;;;;;;;;;4971397;28;20192;-74
2022/06/24 09:20:14;;;;;;;2.83;2.00;;;;;;;;;;4974749;28;20197;-74
2022/06/24 09:22:41;;;;;;;4.27;1.90;;;;;;;;;;4972987;28;20182;-73
2022/06/24 09:25:07;;;;;;;6.13;2.60;;;;;;;;;;4972602;28;20225;-72
2022/06/24 09:27:34;;;;;;;4.43;2.07;;;;;;;;;;4970993;28;20195;-74
2022/06/24 09:30:01;;;;;;;2.77;2.03;;;;;;;;;;4969031;28;20243;-71
2022/06/24 09:32:27;;;;;;;3.87;2.30;;;;;;;;;;4962487;28;20184;-72
2022/06/24 09:34:58;;;;;;;3.20;2.27;;;;;;;;;;4967668;28;20291;-72
2022/06/24 09:37:34;;;;;;;3.40;2.13;;;;;;;;;;4966296;28;20653;-72
2022/06/24 09:40:14;;;;;;;2.77;2.00;;;;;;;;;;4971316;28;20691;-72
2022/06/24 09:42:40;;;;;;;5.03;2.17;;;;;;;;;;4972033;28;20929;-72
2022/06/24 09:45:06;;;;;;;3.83;2.20;;;;;;;;;;4968302;28;20198;-72
2022/06/24 09:47:39;;;;;;;4.90;2.37;;;;;;;;;;4969785;28;20200;-72
2022/06/24 09:50:06;;;;;;;5.20;2.03;;;;;;;;;;4969489;28;20238;-72
2022/06/24 09:52:32;;;;;;;3.53;2.03;;;;;;;;;;4968101;28;20195;-72
2022/06/24 09:55:01;;;;;;;3.87;2.20;;;;;;;;;;4970728;28;20186;-72
2022/06/24 09:57:28;;;;;;;2.87;2.00;;;;;;;;;;4971385;28;20199;-72
2022/06/24 10:02:39;;;;;;;3.57;2.20;;;;;;;;;;4965248;28;20198;-72
2022/06/24 10:05:07;;;;;;;3.43;2.03;;;;;;;;;;4972721;28;20710;-72
2022/06/24 10:07:35;;;;;;;3.70;2.47;;;;;;;;;;4971203;28;20270;-72
2022/06/24 10:10:05;;;;;;;2.63;2.13;;;;;;;;;;4969797;28;20224;-72
2022/06/24 10:12:36;;;;;;;2.40;2.20;;;;;;;;;;4966449;28;20186;-72
2022/06/24 10:15:02;;;;;;;3.87;2.20;;;;;;;;;;4975929;28;20518;-72
2022/06/24 10:17:30;;;;;;;3.07;2.30;;;;;;;;;;4976782;28;20185;-72
2022/06/24 10:19:56;;;;;;;2.67;2.27;;;;;;;;;;4955587;28;20229;-72
2022/06/24 10:22:35;;;;;;;3.63;2.57;;;;;;;;;;4968189;28;20239;-72
2022/06/24 10:25:02;;;;;;;2.30;2.00;;;;;;;;;;4970902;28;20319;-72
2022/06/24 10:27:47;;;;;;;4.83;2.30;;;;;;;;;;4969323;28;20185;-72
2022/06/24 10:30:13;;;;;;;3.30;2.40;;;;;;;;;;4967630;28;20216;-72
2022/06/24 10:32:59;;;;;;;4.47;2.30;;;;;;;;;;4969037;28;20189;-72
2022/06/24 10:35:25;;;;;;;3.10;2.30;;;;;;;;;;4973036;28;20172;-72
2022/06/24 10:37:53;;;;;;;3.73;2.30;;;;;;;;;;4968473;28;20200;-76
2022/06/24 10:40:24;;;;;;;3.83;2.20;;;;;;;;;;4968995;28;20212;-72
2022/06/24 10:43:05;;;;;;;4.03;2.40;;;;;;;;;;4966185;28;20332;-72
2022/06/24 10:45:34;;;;;;;3.23;2.40;;;;;;;;;;4967212;28;20204;-72
2022/06/24 10:48:01;;;;;;;2.87;2.17;;;;;;;;;;4965969;28;20185;-72
2022/06/24 10:50:27;;;;;;;2.47;2.20;;;;;;;;;;4969661;28;20215;-72
2022/06/24 10:53:00;;;;;;;2.50;2.30;;;;;;;;;;4969178;28;20667;-72
2022/06/24 10:57:55;;;;;;;2.80;2.20;;;;;;;;;;4967197;28;20185;-72
2022/06/24 11:00:22;;;;;;;2.10;2.00;;;;;;;;;;4966342;28;20205;-72
2022/06/24 11:02:53;;;;;;;2.93;2.10;;;;;;;;;;4969742;28;20639;-72
2022/06/24 11:05:23;;;;;;;3.40;2.50;;;;;;;;;;4968066;28;20220;-72
2022/06/24 11:07:51;;;;;;;3.03;2.30;;;;;;;;;;4968261;28;20192;-72
2022/06/24 11:10:21;;;;;;;2.83;2.17;;;;;;;;;;4963190;28;20565;-72
2022/06/24 11:12:48;;;;;;;5.00;2.67;;;;;;;;;;4966150;28;20264;-72
2022/06/24 11:15:15;;;;;;;2.60;2.20;;;;;;;;;;4965732;28;20207;-72
2022/06/24 11:17:41;;;;;;;3.13;2.10;;;;;;;;;;4968029;28;20192;-72
2022/06/24 11:20:09;;;;;;;3.00;2.20;;;;;;;;;;4965547;28;20204;-72
2022/06/24 11:22:42;;;;;;;3.23;2.40;;;;;;;;;;4965318;28;20191;-71
2022/06/24 11:25:09;;;;;;;2.40;2.13;;;;;;;;;;4965196;28;20188;-72
2022/06/24 11:27:36;;;;;;;2.47;2.20;;;;;;;;;;4965436;28;20755;-72
2022/06/24 11:30:02;;;;;;;3.53;2.17;;;;;;;;;;4965342;28;20216;-73
2022/06/24 11:32:29;;;;;;;2.53;2.30;;;;;;;;;;4967671;28;20183;-71
2022/06/24 11:34:55;;;;;;;2.37;2.10;;;;;;;;;;4968835;28;20263;-71
2022/06/24 11:37:22;;;;;;;2.30;1.90;;;;;;;;;;4969147;28;20259;-71
2022/06/24 11:39:53;;;;;;;3.30;2.10;;;;;;;;;;4966857;28;20637;-73
2022/06/24 11:42:19;;;;;;;3.60;2.30;;;;;;;;;;4968345;28;20284;-72
2022/06/24 11:44:45;;;;;;;3.50;2.33;;;;;;;;;;4966845;28;20191;-72
2022/06/24 11:47:12;;;;;;;2.17;1.90;;;;;;;;;;4966382;28;20185;-72
2022/06/24 11:49:42;;;;;;;3.27;2.17;;;;;;;;;;4966721;28;20588;-72
2022/06/24 11:52:09;;;;;;;3.57;2.00;;;;;;;;;;4971055;28;21972;-72
2022/06/24 11:54:35;;;;;;;3.20;1.90;;;;;;;;;;4965859;28;20195;-72
2022/06/24 11:57:02;;;;;;;3.50;2.17;;;;;;;;;;4968311;28;20180;-72
2022/06/24 11:59:28;;;;;;;2.27;2.07;;;;;;;;;;4981793;28;20208;-71
2022/06/24 12:01:55;;;;;;;2.73;2.17;;;;;;;;;;4959403;28;20186;-71
2022/06/24 12:04:23;;;;;;;2.43;2.03;;;;;;;;;;4974951;28;20199;-72
2022/06/24 12:06:50;;;;;;;2.40;2.20;;;;;;;;;;4970116;28;20690;-72
2022/06/24 12:09:17;;;;;;;2.93;1.87;;;;;;;;;;4969154;28;20208;-72
2022/06/24 12:11:43;;;;;;;2.90;2.00;;;;;;;;;;4953697;28;20194;-72
2022/06/24 12:14:11;;;;;;;2.27;2.07;;;;;;;;;;4971661;28;20191;-72
2022/06/24 12:16:59;;;;;;;2.30;2.03;;;;;;;;;;4973615;28;20208;-72
2022/06/24 12:19:26;;;;;;;2.90;2.20;;;;;;;;;;4959217;28;20197;-72
2022/06/24 12:22:02;;;;;;;2.50;2.17;;;;;;;;;;4972532;28;20212;-72
2022/06/24 12:24:28;;;;;;;2.73;1.97;;;;;;;;;;4972694;28;20188;-72
2022/06/24 12:26:55;;;;;;;2.70;1.97;;;;;;;;;;4974141;28;20203;-73
2022/06/24 12:29:30;;;;;;;2.13;1.73;;;;;;;;;;4973509;28;20221;-72
2022/06/24 12:31:57;;;;;;;2.37;2.10;;;;;;;;;;4976398;28;20192;-72
2022/06/24 12:34:33;;;;;;;2.20;1.77;;;;;;;;;;4977102;28;20856;-72
2022/06/24 12:37:09;;;;;;;3.23;1.77;;;;;;;;;;4973559;28;20255;-72
2022/06/24 12:39:37;;;;;;;3.00;1.77;;;;;;;;;;4964504;28;20225;-72
2022/06/24 12:42:04;;;;;;;2.00;1.70;;;;;;;;;;4967426;28;20194;-72
2022/06/24 12:44:40;;;;;;;2.43;1.60;;;;;;;;;;4974649;28;20198;-73
2022/06/24 12:52:40;;;;;;;1.90;1.80;;;;;;;;;;4965291;28;20226;-73
2022/06/24 12:55:08;;;;;;;3.53;1.90;;;;;;;;;;4974425;28;20193;-73
2022/06/24 12:57:35;;;;;;;2.00;1.90;;;;;;;;;;4962650;28;20208;-72
2022/06/24 13:00:03;;;;;;;3.30;1.87;;;;;;;;;;4971185;28;20303;-73
2022/06/24 13:02:30;;;;;;;2.20;1.77;;;;;;;;;;4972665;28;20275;-72
2022/06/24 13:04:57;;;;;;;2.60;1.93;;;;;;;;;;4967327;28;20188;-73
2022/06/24 13:07:23;;;;;;;2.03;1.83;;;;;;;;;;4971559;28;20189;-73
2022/06/24 13:09:49;;;;;;;3.07;2.20;;;;;;;;;;4970822;28;20224;-72
2022/06/24 13:12:16;;;;;;;2.30;1.80;;;;;;;;;;4968859;28;20182;-73
2022/06/24 13:14:42;;;;;;;2.17;1.77;;;;;;;;;;4964756;28;20194;-73
2022/06/24 13:17:08;;;;;;;2.20;1.80;;;;;;;;;;4962540;28;20183;-73
2022/06/24 13:19:35;;;;;;;3.37;1.93;;;;;;;;;;4970491;28;20586;-73
2022/06/24 13:22:01;;;;;;;2.20;1.73;;;;;;;;;;4971810;28;20273;-72
2022/06/24 13:24:28;;;;;;;2.03;1.83;;;;;;;;;;4971178;28;20250;-73
2022/06/24 13:26:55;;;;;;;2.83;2.00;;;;;;;;;;4968432;28;20190;-73
2022/06/24 13:29:21;;;;;;;3.37;1.90;;;;;;;;;;4965688;28;20227;-74
2022/06/24 13:31:47;;;;;;;2.20;1.90;;;;;;;;;;4963929;28;20179;-73
2022/06/24 13:34:13;;;;;;;2.23;1.80;;;;;;;;;;4961678;28;20219;-73
2022/06/24 13:36:39;;;;;;;3.37;2.00;;;;;;;;;;4960943;28;20189;-74
2022/06/24 13:39:06;;;;;;;2.57;1.53;;;;;;;;;;4965964;28;20170;-73
2022/06/24 13:41:33;;;;;;;1.90;1.43;;;;;;;;;;4965783;28;20220;-73
2022/06/24 13:43:59;;;;;;;2.57;1.70;;;;;;;;;;4972965;28;20201;-72
2022/06/24 13:46:25;;;;;;;3.13;1.73;;;;;;;;;;4971422;28;20200;-73
2022/06/24 13:48:51;;;;;;;2.30;1.73;;;;;;;;;;4974539;28;20698;-72
2022/06/24 13:51:17;;;;;;;2.37;1.90;;;;;;;;;;4971338;28;20218;-73
2022/06/24 13:53:43;;;;;;;2.13;1.93;;;;;;;;;;4972494;28;20572;-72
2022/06/24 13:56:10;;;;;;;2.20;2.00;;;;;;;;;;4970924;28;20181;-72
2022/06/24 13:58:36;;;;;;;2.63;2.00;;;;;;;;;;4968188;28;20186;-73
2022/06/24 14:01:03;;;;;;;3.53;2.00;;;;;;;;;;4969139;28;20948;-73
2022/06/24 14:03:29;;;;;;;2.40;1.90;;;;;;;;;;4972079;28;20193;-73
2022/06/24 14:05:56;;;;;;;2.50;1.90;;;;;;;;;;4973415;28;20692;-72
2022/06/24 14:08:22;;;;;;;3.20;2.20;;;;;;;;;;4969740;28;20583;-72
2022/06/24 14:10:49;;;;;;;2.53;2.10;;;;;;;;;;4970859;28;20297;-72
2022/06/24 14:13:15;;;;;;;2.33;2.00;;;;;;;;;;4961662;28;20177;-72
2022/06/24 14:15:41;;;;;;;2.27;2.07;;;;;;;;;;4969183;28;20182;-72
2022/06/24 14:18:07;;;;;;;3.63;2.17;;;;;;;;;;4967910;28;20213;-72
2022/06/24 14:20:33;;;;;;;2.27;2.07;;;;;;;;;;4964692;28;20252;-73
2022/06/24 14:25:45;;;;;;;2.80;2.00;;;;;;;;;;4967675;28;20202;-72
2022/06/24 14:28:11;;;;;;;1.83;1.70;;;;;;;;;;4967347;28;20267;-72
2022/06/24 14:30:37;;;;;;;2.47;1.97;;;;;;;;;;4972901;28;20571;-72
2022/06/24 14:33:03;;;;;;;2.17;2.00;;;;;;;;;;4969177;28;20188;-72
2022/06/24 14:35:30;;;;;;;2.17;1.93;;;;;;;;;;4970998;28;20551;-72
2022/06/24 14:40:41;;;;;;;2.17;1.97;;;;;;;;;;4971210;28;20281;-72
2022/06/24 14:43:07;;;;;;;2.93;1.90;;;;;;;;;;4957985;28;20295;-73
2022/06/24 14:45:34;;;;;;;1.90;1.80;;;;;;;;;;4967240;28;20183;-72
2022/06/24 14:48:00;;;;;;;1.97;1.87;;;;;;;;;;4965943;28;20193;-72
2022/06/24 14:50:27;;;;;;;2.70;1.83;;;;;;;;;;4969935;28;20289;-72
2022/06/24 14:52:53;;;;;;;4.10;1.97;;;;;;;;;;4962195;28;20192;-73
2022/06/24 14:55:20;;;;;;;1.73;1.63;;;;;;;;;;4969019;28;20591;-72
2022/06/24 14:57:46;;;;;;;1.90;1.80;;;;;;;;;;4966855;28;20183;-72
2022/06/24 15:00:12;;;;;;;1.90;1.70;;;;;;;;;;4964777;28;20247;-72
2022/06/24 15:02:40;;;;;;;2.63;1.70;;;;;;;;;;4966421;28;20221;-72
2022/06/24 15:05:06;;;;;;;2.43;1.70;;;;;;;;;;4966902;28;20193;-72
2022/06/24 15:07:32;;;;;;;3.80;2.00;;;;;;;;;;4967772;28;20190;-72